Elk Garden, West Virginia
Current Conditions -  °F | °C
As of 8:15 AM on Saturday 25 Oct 2014 (Local Time) from K2G4 Reporting Station
Scattered Clouds Scattered Clouds  
Wind Chill: 37°   Ceiling: Unl
Heat Index: 43°   Visibility: 10mi
Dew Point: 43°   Wind: 10mph
Humidity: 100%   Direction: 250°WSW
Pressure: 29.99"   Gusts: 18mph
Location:  39.38°N, 79.15°W
Report Text: K2G4 251215Z AUTO 25009G16KT 10SM SCT030 06/06 A2999 RMK AO1
Loading
Personal Weather Stations






























Interactive Weather Map
Tropical Storm Tracking
New forecast layout! Learn more

10-Day Weather Forecast

Advertisements
Track Severe Weather on mobile